Time;durP1;ratioP1;P1;durP2;ratioP2;P2;SDS_P1;SDS_P2;PMS_P1;PMS_P2;Temp;Humidity;BMP_temperature;BMP_pressure;BME280_temperature;BME280_humidity;BME280_pressure;Samples;Min_cycle;Max_cycle;Signal;HPM_P1;HPM_P2
2023/10/30 05:27:47;;;;;;;;;;;;;;;;;;5015808;28;20297;-75
2023/10/30 05:30:14;;;;;;;;;;;;;;;;;;5016054;28;19926;-76
2023/10/30 05:32:41;;;;;;;;;;;;;;;;;;5015944;28;19926;-77
2023/10/30 05:35:08;;;;;;;;;;;;;;;;;;5016147;28;19933;-74
2023/10/30 05:37:35;;;;;;;;;;;;;;;;;;5015976;28;19933;-73
2023/10/30 05:40:02;;;;;;;;;;;;;;;;;;5039061;23;19930;-74
2023/10/30 05:42:29;;;;;;;;;;;;;;;;;;5016061;28;19972;-72
2023/10/30 05:44:55;;;;;;;;;;;;;;;;;;5016334;28;19925;-72
2023/10/30 05:47:22;;;;;;;;;;;;;;;;;;5015979;28;19925;-71
2023/10/30 05:49:49;;;;;;;;;;;;;;;;;;5015944;28;19926;-72
2023/10/30 05:52:16;;;;;;;;;;;;;;;;;;5015966;28;19932;-72
2023/10/30 05:54:43;;;;;;;;;;;;;;;;;;5016328;28;19941;-73
2023/10/30 05:57:11;;;;;;;;;;;;;;;;;;5016109;28;19926;-72
2023/10/30 05:59:38;;;;;;;;;;;;;;;;;;5015535;28;19929;-72
2023/10/30 06:02:05;;;;;;;;;;;;;;;;;;5015539;28;20393;-74
2023/10/30 06:04:32;;;;;;;;;;;;;;;;;;5014638;28;20294;-77
2023/10/30 06:06:59;;;;;;;;;;;;;;;;;;5015555;28;19925;-74
2023/10/30 06:09:26;;;;;;;;;;;;;;;;;;5015910;28;19948;-73
2023/10/30 06:11:53;;;;;;;;;;;;;;;;;;5015351;28;19936;-72
2023/10/30 06:14:21;;;;;;;;;;;;;;;;;;5015493;28;20302;-72
2023/10/30 06:16:48;;;;;;;;;;;;;;;;;;5015568;28;20024;-75
2023/10/30 06:19:15;;;;;;;;;;;;;;;;;;5015451;28;20008;-75
2023/10/30 06:21:43;;;;;;;;;;;;;;;;;;5015489;28;19925;-75
2023/10/30 06:24:10;;;;;;;;;;;;;;;;;;5015392;28;19925;-74
2023/10/30 06:26:37;;;;;;;;;;;;;;;;;;5015635;28;20401;-74
2023/10/30 06:29:04;;;;;;;;;;;;;;;;;;5015242;28;19983;-74
2023/10/30 06:31:32;;;;;;;;;;;;;;;;;;5014959;28;19925;-74
2023/10/30 06:33:59;;;;;;;;;;;;;;;;;;5014973;28;19976;-74
2023/10/30 06:36:26;;;;;;;;;;;;;;;;;;5015044;28;19932;-76
2023/10/30 06:38:54;;;;;;;;;;;;;;;;;;5015080;28;19925;-76
2023/10/30 06:41:21;;;;;;;;;;;;;;;;;;5015870;28;20272;-76
2023/10/30 06:43:48;;;;;;;;;;;;;;;;;;5015086;28;19929;-77
2023/10/30 06:46:15;;;;;;;;;;;;;;;;;;5014843;28;19933;-77
2023/10/30 06:48:42;;;;;;;;;;;;;;;;;;5015453;28;19976;-77
2023/10/30 06:51:09;;;;;;;;;;;;;;;;;;5014926;28;19925;-77
2023/10/30 06:53:36;;;;;;;;;;;;;;;;;;5014928;28;19932;-77
2023/10/30 06:56:03;;;;;;;;;;;;;;;;;;5014729;28;19929;-76
2023/10/30 06:58:30;;;;;;;;;;;;;;;;;;5015137;28;19925;-76
2023/10/30 07:00:57;;;;;;;;;;;;;;;;;;5014851;28;19933;-76
2023/10/30 07:03:23;;;;;;;;;;;;;;;;;;5015121;28;19925;-76
2023/10/30 07:05:50;;;;;;;;;;;;;;;;;;5014762;28;19933;-76
2023/10/30 07:08:17;;;;;;;;;;;;;;;;;;5014712;28;20313;-77
2023/10/30 07:10:44;;;;;;;;;;;;;;;;;;5014462;28;19925;-76
2023/10/30 07:13:11;;;;;;;;;;;;;;;;;;5014154;28;20290;-77
2023/10/30 07:15:38;;;;;;;;;;;;;;;;;;5014466;28;19936;-77
2023/10/30 07:18:05;;;;;;;;;;;;;;;;;;5014138;28;19929;-76
2023/10/30 07:20:32;;;;;;;;;;;;;;;;;;5014298;28;19956;-76
2023/10/30 07:22:59;;;;;;;;;;;;;;;;;;5014303;28;19925;-77
2023/10/30 07:25:25;;;;;;;;;;;;;;;;;;5014258;28;20282;-77
2023/10/30 07:27:52;;;;;;;;;;;;;;;;;;5014276;28;19925;-76
2023/10/30 07:30:19;;;;;;;;;;;;;;;;;;5014069;28;19925;-75
2023/10/30 07:32:48;;;;;;;;;;;;;;;;;;5013881;28;20404;-76
2023/10/30 07:35:15;;;;;;;;;;;;;;;;;;5014143;28;19925;-76
2023/10/30 07:37:42;;;;;;;;;;;;;;;;;;5014181;28;19925;-76
2023/10/30 07:40:08;;;;;;;;;;;;;;;;;;5014055;28;19952;-77
2023/10/30 07:42:36;;;;;;;;;;;;;;;;;;5014172;28;19925;-76
2023/10/30 07:45:03;;;;;;;;;;;;;;;;;;5014174;28;19925;-76
2023/10/30 07:47:30;;;;;;;;;;;;;;;;;;5014131;28;19925;-77
2023/10/30 07:49:59;;;;;;;;;;;;;;;;;;5013656;28;19926;-77
2023/10/30 07:52:26;;;;;;;;;;;;;;;;;;5013954;28;19925;-76
2023/10/30 07:54:53;;;;;;;;;;;;;;;;;;5014308;28;19925;-76
2023/10/30 07:57:20;;;;;;;;;;;;;;;;;;5013968;28;19926;-76
2023/10/30 07:59:47;;;;;;;;;;;;;;;;;;5013564;28;20268;-76
2023/10/30 08:02:14;;;;;;;;;;;;;;;;;;5014043;28;19925;-76
2023/10/30 08:04:41;;;;;;;;;;;;;;;;;;5014021;28;20306;-76
2023/10/30 08:07:08;;;;;;;;;;;;;;;;;;5014022;28;19925;-76
2023/10/30 08:09:35;;;;;;;;;;;;;;;;;;5013864;28;19932;-76
2023/10/30 08:12:02;;;;;;;;;;;;;;;;;;5013744;28;19925;-76
2023/10/30 08:14:29;;;;;;;;;;;;;;;;;;5013828;28;20064;-76
2023/10/30 08:16:56;;;;;;;;;;;;;;;;;;5013550;28;19933;-76
2023/10/30 08:19:23;;;;;;;;;;;;;;;;;;5013804;28;19925;-76
2023/10/30 08:21:50;;;;;;;;;;;;;;;;;;5013819;28;19933;-75
2023/10/30 08:24:18;;;;;;;;;;;;;;;;;;5013456;28;20394;-76
2023/10/30 08:26:45;;;;;;;;;;;;;;;;;;5013890;28;19931;-76
2023/10/30 08:29:12;;;;;;;;;;;;;;;;;;5017087;28;19925;-76
2023/10/30 08:31:39;;;;;;;;;;;;;;;;;;5017487;28;19929;-76
2023/10/30 08:34:06;;;;;;;;;;;;;;;;;;5017223;28;19956;-76
2023/10/30 08:36:33;;;;;;;;;;;;;;;;;;5017214;28;19926;-76
2023/10/30 08:39:00;;;;;;;;;;;;;;;;;;5016977;28;19926;-76
2023/10/30 08:41:27;;;;;;;;;;;;;;;;;;5017151;28;19925;-76
2023/10/30 08:43:53;;;;;;;;;;;;;;;;;;5017040;28;19925;-76
2023/10/30 08:46:20;;;;;;;;;;;;;;;;;;5017233;28;19926;-76
2023/10/30 08:48:47;;;;;;;;;;;;;;;;;;5016982;28;19926;-76
2023/10/30 08:51:14;;;;;;;;;;;;;;;;;;5016659;28;20314;-76
2023/10/30 08:53:41;;;;;;;;;;;;;;;;;;5016892;28;19933;-76
2023/10/30 08:56:08;;;;;;;;;;;;;;;;;;5016884;28;19925;-76
2023/10/30 08:58:35;;;;;;;;;;;;;;;;;;5017572;28;19929;-76
2023/10/30 09:01:03;;;;;;;;;;;;;;;;;;5017143;28;19949;-77
2023/10/30 09:03:31;;;;;;;;;;;;;;;;;;5017221;28;19925;-77
2023/10/30 09:05:58;;;;;;;;;;;;;;;;;;5017039;28;19926;-76
2023/10/30 09:08:25;;;;;;;;;;;;;;;;;;5017306;28;19925;-76
2023/10/30 09:10:52;;;;;;;;;;;;;;;;;;5017126;28;19991;-76
2023/10/30 09:13:19;;;;;;;;;;;;;;;;;;5016694;28;19929;-76
2023/10/30 09:15:45;;;;;;;;;;;;;;;;;;5016894;28;19926;-76
2023/10/30 09:18:12;;;;;;;;;;;;;;;;;;5016892;28;20001;-76
2023/10/30 09:20:39;;;;;;;;;;;;;;;;;;5017005;28;19929;-77
2023/10/30 09:23:06;;;;;;;;;;;;;;;;;;5017026;28;19929;-76
2023/10/30 09:25:33;;;;;;;;;;;;;;;;;;5016980;28;19926;-77
2023/10/30 09:28:00;;;;;;;;;;;;;;;;;;5016857;28;19926;-76
2023/10/30 09:30:30;;;;;;;;;;;;;;;;;;5016212;28;19926;-76
2023/10/30 09:32:57;;;;;;;;;;;;;;;;;;5016212;28;19925;-76
2023/10/30 09:35:24;;;;;;;;;;;;;;;;;;5016187;28;19949;-76
2023/10/30 09:37:51;;;;;;;;;;;;;;;;;;5015845;28;20449;-77
2023/10/30 09:40:19;;;;;;;;;;;;;;;;;;5014861;28;19932;-77
2023/10/30 09:42:46;;;;;;;;;;;;;;;;;;5016008;28;19979;-76
2023/10/30 09:45:12;;;;;;;;;;;;;;;;;;5016122;28;19925;-76
2023/10/30 09:47:39;;;;;;;;;;;;;;;;;;5016303;28;19929;-77
2023/10/30 09:50:06;;;;;;;;;;;;;;;;;;5015569;28;19932;-76
2023/10/30 09:52:33;;;;;;;;;;;;;;;;;;5015851;28;19926;-77
2023/10/30 09:55:04;;;;;;;;;;;;;;;;;;5016149;28;19936;-76
2023/10/30 09:57:31;;;;;;;;;;;;;;;;;;5015914;28;19932;-74
2023/10/30 09:59:58;;;;;;;;;;;;;;;;;;5015545;28;19979;-74
2023/10/30 10:02:25;;;;;;;;;;;;;;;;;;5016763;28;19933;-74
2023/10/30 10:04:52;;;;;;;;;;;;;;;;;;5015767;28;20379;-74
2023/10/30 10:07:19;;;;;;;;;;;;;;;;;;5016014;28;19937;-74
2023/10/30 10:09:45;;;;;;;;;;;;;;;;;;5017045;28;19926;-74
2023/10/30 10:12:12;;;;;;;;;;;;;;;;;;5015723;28;19928;-74
2023/10/30 10:14:40;;;;;;;;;;;;;;;;;;5015687;28;19932;-74
2023/10/30 10:17:08;;;;;;;;;;;;;;;;;;5016069;28;19925;-75
2023/10/30 10:19:36;;;;;;;;;;;;;;;;;;5015694;28;19984;-75
2023/10/30 10:22:03;;;;;;;;;;;;;;;;;;5015416;28;19979;-73
2023/10/30 10:24:30;;;;;;;;;;;;;;;;;;5015768;28;19925;-74
2023/10/30 10:26:56;;;;;;;;;;;;;;;;;;5015338;28;20310;-74
2023/10/30 10:29:23;;;;;;;;;;;;;;;;;;5015277;28;19933;-73
2023/10/30 10:31:51;;;;;;;;;;;;;;;;;;5015364;28;19960;-74
2023/10/30 10:34:18;;;;;;;;;;;;;;;;;;5015413;28;19964;-74
2023/10/30 10:36:45;;;;;;;;;;;;;;;;;;5015260;28;19933;-74
2023/10/30 10:39:12;;;;;;;;;;;;;;;;;;5014749;28;19926;-74
2023/10/30 10:41:39;;;;;;;;;;;;;;;;;;5015038;28;19932;-74
2023/10/30 10:44:06;;;;;;;;;;;;;;;;;;5015013;28;19933;-74
2023/10/30 10:46:33;;;;;;;;;;;;;;;;;;5023068;28;19925;-73
2023/10/30 10:48:59;;;;;;;;;;;;;;;;;;5036696;28;19925;-73
2023/10/30 10:51:26;;;;;;;;;;;;;;;;;;5036381;28;19925;-74
2023/10/30 10:53:53;;;;;;;;;;;;;;;;;;5037309;28;19925;-73
2023/10/30 10:56:20;;;;;;;;;;;;;;;;;;5029874;28;20551;-73
2023/10/30 10:58:49;;;;;;;;;;;;;;;;;;5016546;28;19925;-73
2023/10/30 11:01:16;;;;;;;;;;;;;;;;;;5015608;28;19925;-73
2023/10/30 11:03:43;;;;;;;;;;;;;;;;;;5015720;28;20413;-74
2023/10/30 11:06:10;;;;;;;;;;;;;;;;;;5015449;28;19929;-74
2023/10/30 11:08:37;;;;;;;;;;;;;;;;;;5015223;28;20387;-75
2023/10/30 11:11:04;;;;;;;;;;;;;;;;;;5016563;28;19926;-74
2023/10/30 11:13:31;;;;;;;;;;;;;;;;;;5016886;28;19929;-75
2023/10/30 11:15:58;;;;;;;;;;;;;;;;;;5017660;28;20380;-74
2023/10/30 11:18:25;;;;;;;;;;;;;;;;;;5017034;28;19932;-75
2023/10/30 11:20:52;;;;;;;;;;;;;;;;;;5019665;28;19932;-75
2023/10/30 11:23:19;;;;;;;;;;;;;;;;;;5015657;28;19929;-77
2023/10/30 11:25:53;;;;;;;;;;;;;;;;;;5015221;28;19933;-74
2023/10/30 11:28:20;;;;;;;;;;;;;;;;;;5015622;28;19925;-75
2023/10/30 11:30:47;;;;;;;;;;;;;;;;;;5015021;28;19932;-75
2023/10/30 11:33:14;;;;;;;;;;;;;;;;;;5014416;28;19926;-74
2023/10/30 11:35:41;;;;;;;;;;;;;;;;;;5015090;28;20001;-73
2023/10/30 11:38:08;;;;;;;;;;;;;;;;;;5014781;28;19933;-73
2023/10/30 11:40:35;;;;;;;;;;;;;;;;;;5040906;22;19925;-77
2023/10/30 11:43:02;;;;;;;;;;;;;;;;;;5019257;28;20290;-78
2023/10/30 11:45:30;;;;;;;;;;;;;;;;;;5017251;28;19926;-77
2023/10/30 11:47:57;;;;;;;;;;;;;;;;;;5015998;28;19969;-79
2023/10/30 11:50:24;;;;;;;;;;;;;;;;;;5015461;28;20267;-76
2023/10/30 11:52:51;;;;;;;;;;;;;;;;;;5014158;28;19926;-76
2023/10/30 11:55:19;;;;;;;;;;;;;;;;;;5014089;28;20333;-76
2023/10/30 11:57:45;;;;;;;;;;;;;;;;;;5013904;28;19932;-77
2023/10/30 12:00:12;;;;;;;;;;;;;;;;;;5015101;28;19925;-77
2023/10/30 12:02:39;;;;;;;;;;;;;;;;;;5015290;28;19925;-77
2023/10/30 12:05:06;;;;;;;;;;;;;;;;;;5017939;28;19925;-77
2023/10/30 12:07:33;;;;;;;;;;;;;;;;;;5018751;28;19934;-80
2023/10/30 12:10:01;;;;;;;;;;;;;;;;;;5017796;28;20293;-78
2023/10/30 12:12:27;;;;;;;;;;;;;;;;;;5017678;28;20444;-78
2023/10/30 12:14:54;;;;;;;;;;;;;;;;;;5017500;28;20291;-76
2023/10/30 12:17:22;;;;;;;;;;;;;;;;;;5018265;28;19932;-76
2023/10/30 12:19:49;;;;;;;;;;;;;;;;;;5017944;28;19925;-77
2023/10/30 12:22:16;;;;;;;;;;;;;;;;;;5018145;28;19925;-77
2023/10/30 12:24:43;;;;;;;;;;;;;;;;;;5032995;28;19925;-76
2023/10/30 12:27:10;;;;;;;;;;;;;;;;;;5034621;28;19933;-76
2023/10/30 12:29:37;;;;;;;;;;;;;;;;;;5029119;28;20394;-76
2023/10/30 12:32:04;;;;;;;;;;;;;;;;;;5017672;28;19929;-76
2023/10/30 12:34:31;;;;;;;;;;;;;;;;;;5017330;28;19933;-77
2023/10/30 12:36:57;;;;;;;;;;;;;;;;;;5017736;28;19926;-77
2023/10/30 12:39:26;;;;;;;;;;;;;;;;;;5016890;28;20353;-77
2023/10/30 12:41:55;;;;;;;;;;;;;;;;;;5017351;28;19926;-76
2023/10/30 12:44:23;;;;;;;;;;;;;;;;;;5017245;28;20379;-77
2023/10/30 12:46:50;;;;;;;;;;;;;;;;;;5017185;28;19971;-77
2023/10/30 12:49:17;;;;;;;;;;;;;;;;;;5017288;28;20267;-78
2023/10/30 12:51:44;;;;;;;;;;;;;;;;;;5017567;28;19929;-77
2023/10/30 12:54:11;;;;;;;;;;;;;;;;;;5016964;28;19926;-77
2023/10/30 12:56:38;;;;;;;;;;;;;;;;;;5017351;28;19949;-76
2023/10/30 12:59:06;;;;;;;;;;;;;;;;;;5016893;28;19926;-76
2023/10/30 13:01:34;;;;;;;;;;;;;;;;;;5016354;28;19925;-77
2023/10/30 13:04:01;;;;;;;;;;;;;;;;;;5016961;28;19972;-77
2023/10/30 13:06:27;;;;;;;;;;;;;;;;;;5016598;28;19925;-77
2023/10/30 13:08:54;;;;;;;;;;;;;;;;;;5016911;28;19925;-77
2023/10/30 13:11:22;;;;;;;;;;;;;;;;;;5016440;28;20300;-76
2023/10/30 13:13:49;;;;;;;;;;;;;;;;;;5016352;28;19925;-77
2023/10/30 13:16:16;;;;;;;;;;;;;;;;;;5016908;28;20401;-78
2023/10/30 13:18:43;;;;;;;;;;;;;;;;;;5017080;28;19933;-77
2023/10/30 13:21:10;;;;;;;;;;;;;;;;;;5016980;28;20347;-77
2023/10/30 13:23:37;;;;;;;;;;;;;;;;;;5016849;28;19925;-77
2023/10/30 13:26:04;;;;;;;;;;;;;;;;;;5016625;28;19929;-77
2023/10/30 13:28:31;;;;;;;;;;;;;;;;;;5016658;28;19973;-77
2023/10/30 13:30:58;;;;;;;;;;;;;;;;;;5016368;28;20409;-77
2023/10/30 13:33:26;;;;;;;;;;;;;;;;;;5016572;28;20437;-77
2023/10/30 13:35:53;;;;;;;;;;;;;;;;;;5018589;28;19979;-77
2023/10/30 13:38:21;;;;;;;;;;;;;;;;;;5018013;28;19933;-77
2023/10/30 13:40:51;;;;;;;;;;;;;;;;;;5017442;28;20436;-77
2023/10/30 13:43:18;;;;;;;;;;;;;;;;;;5018721;28;20271;-77
2023/10/30 13:45:45;;;;;;;;;;;;;;;;;;5018241;28;19926;-78
2023/10/30 13:48:12;;;;;;;;;;;;;;;;;;5017451;28;19925;-77
2023/10/30 13:50:39;;;;;;;;;;;;;;;;;;5018251;28;19925;-77
2023/10/30 13:53:06;;;;;;;;;;;;;;;;;;5018168;28;19926;-78
2023/10/30 13:55:33;;;;;;;;;;;;;;;;;;5018528;28;19925;-78
2023/10/30 13:58:00;;;;;;;;;;;;;;;;;;5018140;28;20302;-78
2023/10/30 14:00:30;;;;;;;;;;;;;;;;;;5018755;28;19926;-77
2023/10/30 14:02:57;;;;;;;;;;;;;;;;;;5017410;28;19929;-77
2023/10/30 14:05:24;;;;;;;;;;;;;;;;;;5017644;28;19936;-78
2023/10/30 14:07:51;;;;;;;;;;;;;;;;;;5018668;28;19932;-77
2023/10/30 14:10:18;;;;;;;;;;;;;;;;;;5016953;28;19925;-78
2023/10/30 14:12:45;;;;;;;;;;;;;;;;;;5015699;28;19925;-77
2023/10/30 14:15:11;;;;;;;;;;;;;;;;;;5015760;28;19951;-77
2023/10/30 14:17:38;;;;;;;;;;;;;;;;;;5015523;28;19926;-77
2023/10/30 14:20:05;;;;;;;;;;;;;;;;;;5017076;28;19932;-77
2023/10/30 14:22:32;;;;;;;;;;;;;;;;;;5017813;28;20298;-77
2023/10/30 14:24:59;;;;;;;;;;;;;;;;;;5017528;28;19932;-77
2023/10/30 14:27:26;;;;;;;;;;;;;;;;;;5015930;28;19925;-77
2023/10/30 14:29:53;;;;;;;;;;;;;;;;;;5015181;28;19932;-77
2023/10/30 14:32:20;;;;;;;;;;;;;;;;;;5015109;28;19988;-77
2023/10/30 14:34:47;;;;;;;;;;;;;;;;;;5015007;28;19969;-77
2023/10/30 14:37:14;;;;;;;;;;;;;;;;;;5014876;28;20391;-76
2023/10/30 14:39:40;;;;;;;;;;;;;;;;;;5014622;28;19925;-76
2023/10/30 14:42:10;;;;;;;;;;;;;;;;;;5014952;28;19933;-76
2023/10/30 14:44:37;;;;;;;;;;;;;;;;;;5014553;28;20401;-77
2023/10/30 14:47:04;;;;;;;;;;;;;;;;;;5014953;28;19964;-77
2023/10/30 14:49:31;;;;;;;;;;;;;;;;;;5014398;28;20383;-77
2023/10/30 14:51:58;;;;;;;;;;;;;;;;;;5014787;28;19932;-77
2023/10/30 14:54:25;;;;;;;;;;;;;;;;;;5015045;28;19926;-77
2023/10/30 14:56:52;;;;;;;;;;;;;;;;;;5015376;28;19925;-77
2023/10/30 14:59:19;;;;;;;;;;;;;;;;;;5014877;28;19952;-77
2023/10/30 15:01:46;;;;;;;;;;;;;;;;;;5014880;28;19927;-77
2023/10/30 15:04:13;;;;;;;;;;;;;;;;;;5014630;28;20417;-77
2023/10/30 15:06:40;;;;;;;;;;;;;;;;;;5014998;28;19932;-76
2023/10/30 15:09:08;;;;;;;;;;;;;;;;;;5014431;28;20020;-76
2023/10/30 15:11:35;;;;;;;;;;;;;;;;;;5014397;28;19996;-76
2023/10/30 15:14:02;;;;;;;;;;;;;;;;;;5014272;28;19925;-76
2023/10/30 15:16:29;;;;;;;;;;;;;;;;;;5014418;28;19929;-76
2023/10/30 15:18:56;;;;;;;;;;;;;;;;;;5014405;28;19926;-76
2023/10/30 15:21:23;;;;;;;;;;;;;;;;;;5014701;28;19933;-77
2023/10/30 15:23:50;;;;;;;;;;;;;;;;;;5014021;28;19926;-76
2023/10/30 15:26:17;;;;;;;;;;;;;;;;;;5014267;28;20375;-77
2023/10/30 15:28:44;;;;;;;;;;;;;;;;;;5016073;28;19926;-77
2023/10/30 15:31:12;;;;;;;;;;;;;;;;;;5015872;28;20286;-77
2023/10/30 15:33:39;;;;;;;;;;;;;;;;;;5015358;28;20359;-77
2023/10/30 15:36:06;;;;;;;;;;;;;;;;;;5015748;28;19932;-77
2023/10/30 15:38:33;;;;;;;;;;;;;;;;;;5014400;28;20375;-77
2023/10/30 15:41:00;;;;;;;;;;;;;;;;;;5015666;28;19925;-78
2023/10/30 15:43:26;;;;;;;;;;;;;;;;;;5016588;28;19968;-78
2023/10/30 15:45:53;;;;;;;;;;;;;;;;;;5015604;28;19926;-77
2023/10/30 15:48:20;;;;;;;;;;;;;;;;;;5015947;28;19932;-77
2023/10/30 15:50:47;;;;;;;;;;;;;;;;;;5015878;28;20275;-77
2023/10/30 15:53:14;;;;;;;;;;;;;;;;;;5015757;28;19926;-78
2023/10/30 15:55:41;;;;;;;;;;;;;;;;;;5016015;28;20383;-78
2023/10/30 15:58:10;;;;;;;;;;;;;;;;;;5016251;28;19933;-78
2023/10/30 16:00:37;;;;;;;;;;;;;;;;;;5016224;28;19926;-78
2023/10/30 16:03:04;;;;;;;;;;;;;;;;;;5015643;28;19948;-78
2023/10/30 16:05:30;;;;;;;;;;;;;;;;;;5015883;28;19925;-77
2023/10/30 16:07:57;;;;;;;;;;;;;;;;;;5016445;28;19948;-77
2023/10/30 16:10:24;;;;;;;;;;;;;;;;;;5015871;28;19932;-78
2023/10/30 16:12:51;;;;;;;;;;;;;;;;;;5014121;28;19925;-72
2023/10/30 16:15:18;;;;;;;;;;;;;;;;;;5013418;28;20379;-77
2023/10/30 16:17:45;;;;;;;;;;;;;;;;;;5013727;28;19936;-75
2023/10/30 16:20:12;;;;;;;;;;;;;;;;;;5013655;28;19926;-75
2023/10/30 16:22:39;;;;;;;;;;;;;;;;;;5014248;28;19926;-76
2023/10/30 16:25:06;;;;;;;;;;;;;;;;;;5013767;28;20020;-76
2023/10/30 16:27:33;;;;;;;;;;;;;;;;;;5014402;28;20315;-76
2023/10/30 16:30:01;;;;;;;;;;;;;;;;;;5013898;28;20032;-76
2023/10/30 16:32:28;;;;;;;;;;;;;;;;;;5013728;28;19932;-75
2023/10/30 16:34:55;;;;;;;;;;;;;;;;;;5013614;28;19925;-75
2023/10/30 16:37:22;;;;;;;;;;;;;;;;;;5013424;28;20399;-75
2023/10/30 16:39:49;;;;;;;;;;;;;;;;;;5013365;28;19932;-76
2023/10/30 16:42:16;;;;;;;;;;;;;;;;;;5013368;28;20391;-76
2023/10/30 16:44:43;;;;;;;;;;;;;;;;;;5013595;28;19925;-76
2023/10/30 16:47:10;;;;;;;;;;;;;;;;;;5013664;28;20020;-76
2023/10/30 16:49:36;;;;;;;;;;;;;;;;;;5016006;28;19933;-76
2023/10/30 16:52:03;;;;;;;;;;;;;;;;;;5017010;28;20276;-76
2023/10/30 16:54:30;;;;;;;;;;;;;;;;;;5017219;28;19926;-76
2023/10/30 16:56:57;;;;;;;;;;;;;;;;;;5017092;28;19925;-76
2023/10/30 16:59:24;;;;;;;;;;;;;;;;;;5017089;28;19925;-76
2023/10/30 17:01:51;;;;;;;;;;;;;;;;;;5016906;28;19925;-77
2023/10/30 17:04:18;;;;;;;;;;;;;;;;;;5016946;28;19995;-76
2023/10/30 17:06:45;;;;;;;;;;;;;;;;;;5016930;28;19926;-76
2023/10/30 17:09:12;;;;;;;;;;;;;;;;;;5016713;28;20371;-76
2023/10/30 17:11:38;;;;;;;;;;;;;;;;;;5016928;28;19933;-77
2023/10/30 17:14:05;;;;;;;;;;;;;;;;;;5016888;28;19933;-76
2023/10/30 17:16:32;;;;;;;;;;;;;;;;;;5016677;28;19926;-77
2023/10/30 17:18:59;;;;;;;;;;;;;;;;;;5016784;28;19925;-77
2023/10/30 17:21:26;;;;;;;;;;;;;;;;;;5016914;28;19929;-77
2023/10/30 17:23:53;;;;;;;;;;;;;;;;;;5016866;28;19925;-77
2023/10/30 17:26:20;;;;;;;;;;;;;;;;;;5016829;28;19929;-78
2023/10/30 17:28:47;;;;;;;;;;;;;;;;;;5016624;28;20271;-77
2023/10/30 17:31:15;;;;;;;;;;;;;;;;;;5016464;28;19926;-77
2023/10/30 17:33:42;;;;;;;;;;;;;;;;;;5016421;28;20012;-77
2023/10/30 17:36:09;;;;;;;;;;;;;;;;;;5016297;28;19932;-77
2023/10/30 17:38:36;;;;;;;;;;;;;;;;;;5016452;28;19925;-77
2023/10/30 17:41:03;;;;;;;;;;;;;;;;;;5040882;23;19936;-75
2023/10/30 17:43:29;;;;;;;;;;;;;;;;;;5016078;28;20017;-74
2023/10/30 17:45:56;;;;;;;;;;;;;;;;;;5016108;28;19936;-74
2023/10/30 17:48:23;;;;;;;;;;;;;;;;;;5016187;28;20295;-75
2023/10/30 17:50:50;;;;;;;;;;;;;;;;;;5016024;28;19933;-75
2023/10/30 17:53:17;;;;;;;;;;;;;;;;;;5015965;28;19926;-75
2023/10/30 17:55:47;;;;;;;;;;;;;;;;;;5015895;28;19926;-75
2023/10/30 17:58:14;;;;;;;;;;;;;;;;;;5015854;28;19925;-74
2023/10/30 18:00:41;;;;;;;;;;;;;;;;;;5014597;28;20318;-75
2023/10/30 18:03:07;;;;;;;;;;;;;;;;;;5015795;28;19925;-74
2023/10/30 18:05:34;;;;;;;;;;;;;;;;;;5015290;28;19936;-74
2023/10/30 18:08:01;;;;;;;;;;;;;;;;;;5015528;28;19926;-74
2023/10/30 18:10:28;;;;;;;;;;;;;;;;;;5015987;28;19926;-74
2023/10/30 18:12:55;;;;;;;;;;;;;;;;;;5015766;28;19932;-74
2023/10/30 18:15:24;;;;;;;;;;;;;;;;;;5015301;28;20375;-75
2023/10/30 18:17:52;;;;;;;;;;;;;;;;;;5015640;28;19948;-73
2023/10/30 18:20:19;;;;;;;;;;;;;;;;;;5015634;28;19929;-74
2023/10/30 18:22:46;;;;;;;;;;;;;;;;;;5015633;28;19932;-73
2023/10/30 18:25:13;;;;;;;;;;;;;;;;;;5015615;28;19929;-74
2023/10/30 18:27:40;;;;;;;;;;;;;;;;;;5016212;28;19932;-73
2023/10/30 18:30:07;;;;;;;;;;;;;;;;;;5016330;28;19929;-73
2023/10/30 18:32:34;;;;;;;;;;;;;;;;;;5017586;28;19933;-74
2023/10/30 18:35:01;;;;;;;;;;;;;;;;;;5016376;28;19925;-74
2023/10/30 18:37:29;;;;;;;;;;;;;;;;;;5016774;28;19936;-75
2023/10/30 18:39:56;;;;;;;;;;;;;;;;;;5016833;28;19926;-74
2023/10/30 18:42:22;;;;;;;;;;;;;;;;;;5016653;28;19925;-73
2023/10/30 18:44:49;;;;;;;;;;;;;;;;;;5016537;28;19972;-74
2023/10/30 18:47:16;;;;;;;;;;;;;;;;;;5016275;28;20286;-74
2023/10/30 18:49:43;;;;;;;;;;;;;;;;;;5017065;28;21248;-74
2023/10/30 18:52:10;;;;;;;;;;;;;;;;;;5016495;28;20001;-76
2023/10/30 18:54:37;;;;;;;;;;;;;;;;;;5016271;28;19932;-75
2023/10/30 18:57:04;;;;;;;;;;;;;;;;;;5017019;28;19933;-74
2023/10/30 18:59:31;;;;;;;;;;;;;;;;;;5016913;28;19926;-75
2023/10/30 19:01:58;;;;;;;;;;;;;;;;;;5017001;28;19929;-75
2023/10/30 19:04:25;;;;;;;;;;;;;;;;;;5016707;28;19926;-76
2023/10/30 19:06:52;;;;;;;;;;;;;;;;;;5016444;28;19925;-77
2023/10/30 19:09:19;;;;;;;;;;;;;;;;;;5016734;28;19926;-76
2023/10/30 19:11:46;;;;;;;;;;;;;;;;;;5016921;28;19925;-76
2023/10/30 19:14:13;;;;;;;;;;;;;;;;;;5016493;28;19961;-76
2023/10/30 19:16:40;;;;;;;;;;;;;;;;;;5016328;28;19933;-76
2023/10/30 19:19:07;;;;;;;;;;;;;;;;;;5016276;28;20291;-75
2023/10/30 19:21:34;;;;;;;;;;;;;;;;;;5016360;28;19925;-76
2023/10/30 19:24:02;;;;;;;;;;;;;;;;;;5016291;28;19932;-75
2023/10/30 19:26:29;;;;;;;;;;;;;;;;;;5016563;28;19948;-75
2023/10/30 19:28:56;;;;;;;;;;;;;;;;;;5016261;28;19926;-75
2023/10/30 19:31:23;;;;;;;;;;;;;;;;;;5016445;28;19925;-75
2023/10/30 19:33:50;;;;;;;;;;;;;;;;;;5016372;28;19925;-75
2023/10/30 19:36:16;;;;;;;;;;;;;;;;;;5015900;28;19925;-75
2023/10/30 19:38:43;;;;;;;;;;;;;;;;;;5015759;28;19925;-76
2023/10/30 19:41:10;;;;;;;;;;;;;;;;;;5015748;28;19933;-75
2023/10/30 19:43:37;;;;;;;;;;;;;;;;;;5015814;28;19926;-75
2023/10/30 19:46:04;;;;;;;;;;;;;;;;;;5017499;28;20271;-75
2023/10/30 19:48:33;;;;;;;;;;;;;;;;;;5017096;28;19925;-76
2023/10/30 19:51:00;;;;;;;;;;;;;;;;;;5015783;28;19933;-75
2023/10/30 19:53:27;;;;;;;;;;;;;;;;;;5015679;28;19934;-75
2023/10/30 19:55:54;;;;;;;;;;;;;;;;;;5015401;28;19932;-75
2023/10/30 19:58:23;;;;;;;;;;;;;;;;;;5015896;28;19988;-75
2023/10/30 20:00:50;;;;;;;;;;;;;;;;;;5015944;28;19926;-75
2023/10/30 20:03:19;;;;;;;;;;;;;;;;;;5015824;28;20318;-76
2023/10/30 20:05:46;;;;;;;;;;;;;;;;;;5015820;28;19972;-76
2023/10/30 20:08:13;;;;;;;;;;;;;;;;;;5015734;28;19926;-76
2023/10/30 20:10:40;;;;;;;;;;;;;;;;;;5015586;28;19972;-74
2023/10/30 20:13:07;;;;;;;;;;;;;;;;;;5015677;28;20294;-75
2023/10/30 20:15:34;;;;;;;;;;;;;;;;;;5014591;28;20429;-74
2023/10/30 20:18:01;;;;;;;;;;;;;;;;;;5015139;28;19933;-75
2023/10/30 20:20:35;;;;;;;;;;;;;;;;;;5015619;28;20020;-77
2023/10/30 20:23:02;;;;;;;;;;;;;;;;;;5015478;28;19926;-76
2023/10/30 20:25:29;;;;;;;;;;;;;;;;;;5019720;28;19936;-76
2023/10/30 20:27:56;;;;;;;;;;;;;;;;;;5019479;28;19926;-78
2023/10/30 20:30:25;;;;;;;;;;;;;;;;;;5019554;28;19987;-78
2023/10/30 20:32:52;;;;;;;;;;;;;;;;;;5020090;28;19926;-76
2023/10/30 20:35:19;;;;;;;;;;;;;;;;;;5018840;28;20391;-76
2023/10/30 20:37:46;;;;;;;;;;;;;;;;;;5019178;28;19932;-77
2023/10/30 20:40:13;;;;;;;;;;;;;;;;;;5019068;28;19933;-76
2023/10/30 20:42:40;;;;;;;;;;;;;;;;;;5019666;28;19925;-76
2023/10/30 20:45:07;;;;;;;;;;;;;;;;;;5019268;28;19925;-76
2023/10/30 20:47:34;;;;;;;;;;;;;;;;;;5020277;28;19933;-75
2023/10/30 20:50:01;;;;;;;;;;;;;;;;;;5018979;28;19925;-75
2023/10/30 20:52:28;;;;;;;;;;;;;;;;;;5017327;28;20282;-75
